Time;durP1;ratioP1;P1;durP2;ratioP2;P2;SDS_P1;SDS_P2;PMS_P1;PMS_P2;Temp;Humidity;BMP_temperature;BMP_pressure;BME280_temperature;BME280_humidity;BME280_pressure;Samples;Min_cycle;Max_cycle;Signal;HPM_P1;HPM_P2
2022/03/30 00:00:42;;;;;;;112.70;47.30;;;;;;;;;;6261334;28;20411;-62
2022/03/30 00:03:43;;;;;;;105.65;44.67;;;;;;;;;;6263759;28;20099;-63
2022/03/30 00:06:43;;;;;;;113.65;49.53;;;;;;;;;;6261447;28;20465;-62
2022/03/30 00:09:44;;;;;;;112.22;49.22;;;;;;;;;;6260302;28;20083;-63
2022/03/30 00:12:46;;;;;;;109.30;46.30;;;;;;;;;;6261929;28;20399;-62
2022/03/30 00:15:46;;;;;;;106.72;46.63;;;;;;;;;;6257299;28;20067;-62
2022/03/30 00:18:47;;;;;;;107.25;45.05;;;;;;;;;;6257397;28;20041;-63
2022/03/30 00:21:48;;;;;;;108.30;46.42;;;;;;;;;;6261442;28;20045;-61
2022/03/30 00:24:48;;;;;;;103.63;43.42;;;;;;;;;;6259774;28;20083;-62
2022/03/30 00:27:49;;;;;;;98.50;42.45;;;;;;;;;;6261112;28;20049;-63
2022/03/30 00:30:49;;;;;;;111.28;44.72;;;;;;;;;;6261098;28;20131;-63
2022/03/30 00:33:52;;;;;;;102.47;42.85;;;;;;;;;;6263655;28;20484;-61
2022/03/30 00:36:52;;;;;;;106.82;42.80;;;;;;;;;;6261208;28;20055;-63
2022/03/30 00:39:53;;;;;;;106.07;47.10;;;;;;;;;;6260501;28;20060;-63
2022/03/30 00:42:54;;;;;;;106.07;45.25;;;;;;;;;;6263159;28;20127;-62
2022/03/30 00:45:55;;;;;;;97.53;44.20;;;;;;;;;;6258773;28;20048;-63
2022/03/30 00:48:56;;;;;;;103.53;44.22;;;;;;;;;;6259755;28;20501;-63
2022/03/30 00:51:56;;;;;;;105.15;44.97;;;;;;;;;;6259698;28;20049;-62
2022/03/30 00:54:57;;;;;;;99.43;41.75;;;;;;;;;;6257828;28;20043;-63
2022/03/30 00:57:58;;;;;;;104.78;43.53;;;;;;;;;;6260287;28;20430;-63
2022/03/30 01:00:59;;;;;;;99.35;44.17;;;;;;;;;;6262123;28;20061;-63
2022/03/30 01:04:07;;;;;;;104.50;42.75;;;;;;;;;;6262565;28;20480;-63
2022/03/30 01:07:08;;;;;;;101.55;43.20;;;;;;;;;;6267072;28;20480;-62
2022/03/30 01:10:10;;;;;;;104.88;44.42;;;;;;;;;;6268228;28;20055;-63
2022/03/30 01:13:12;;;;;;;107.93;45.20;;;;;;;;;;6266576;28;20053;-63
2022/03/30 01:16:13;;;;;;;110.18;45.72;;;;;;;;;;6259582;28;20063;-62
2022/03/30 01:19:14;;;;;;;112.55;45.95;;;;;;;;;;6263256;28;20492;-64
2022/03/30 01:22:15;;;;;;;104.57;46.67;;;;;;;;;;6262586;28;20079;-62
2022/03/30 01:25:16;;;;;;;103.28;43.90;;;;;;;;;;6258444;28;20354;-63
2022/03/30 01:28:16;;;;;;;108.80;43.75;;;;;;;;;;6262286;28;20053;-62
2022/03/30 01:34:36;;;;;;;107.93;44.65;;;;;;;;;;6260963;28;20520;-62
2022/03/30 01:37:37;;;;;;;99.15;43.00;;;;;;;;;;6260233;28;20068;-63
2022/03/30 01:40:38;;;;;;;108.05;45.47;;;;;;;;;;6263097;28;20049;-62
2022/03/30 01:43:39;;;;;;;104.35;44.15;;;;;;;;;;6260756;28;20144;-64
2022/03/30 01:46:39;;;;;;;110.68;45.38;;;;;;;;;;6257050;28;20052;-62
2022/03/30 01:49:41;;;;;;;106.22;44.88;;;;;;;;;;6259571;28;20044;-63
2022/03/30 01:52:42;;;;;;;100.20;46.45;;;;;;;;;;6261516;28;20111;-63
2022/03/30 01:55:43;;;;;;;110.90;47.13;;;;;;;;;;6258917;28;20127;-61
2022/03/30 01:58:44;;;;;;;118.93;48.85;;;;;;;;;;6254644;28;20514;-63
2022/03/30 02:01:45;;;;;;;112.25;48.22;;;;;;;;;;6264284;28;20055;-62
2022/03/30 02:04:46;;;;;;;118.35;48.70;;;;;;;;;;6265776;28;20041;-61
2022/03/30 02:07:47;;;;;;;111.35;46.15;;;;;;;;;;6260356;28;20468;-62
2022/03/30 02:10:47;;;;;;;115.13;48.20;;;;;;;;;;6266118;28;20575;-61
2022/03/30 02:13:48;;;;;;;114.35;47.38;;;;;;;;;;6267848;28;20412;-62
2022/03/30 02:16:49;;;;;;;120.78;48.20;;;;;;;;;;6264139;28;20049;-63
2022/03/30 02:19:50;;;;;;;110.68;47.88;;;;;;;;;;6266780;28;20555;-62
2022/03/30 02:22:51;;;;;;;111.57;49.67;;;;;;;;;;6265789;28;20509;-62
2022/03/30 02:25:51;;;;;;;118.72;48.92;;;;;;;;;;6263169;28;20135;-62
2022/03/30 02:28:52;;;;;;;120.38;48.45;;;;;;;;;;6265929;28;20053;-62
2022/03/30 02:31:53;;;;;;;114.35;46.67;;;;;;;;;;6265959;28;20471;-61
2022/03/30 02:34:53;;;;;;;110.30;47.58;;;;;;;;;;6263034;28;20052;-62
2022/03/30 02:37:56;;;;;;;112.03;47.25;;;;;;;;;;6261003;28;20170;-61
2022/03/30 02:40:57;;;;;;;113.45;45.42;;;;;;;;;;6264070;28;20527;-62
2022/03/30 02:43:57;;;;;;;120.93;48.45;;;;;;;;;;6265231;28;20045;-62
2022/03/30 02:47:00;;;;;;;128.40;53.00;;;;;;;;;;6263816;28;20056;-63
2022/03/30 02:50:01;;;;;;;129.23;50.03;;;;;;;;;;6265234;28;20418;-61
2022/03/30 02:53:02;;;;;;;107.82;43.45;;;;;;;;;;6266240;28;20061;-62
2022/03/30 02:56:03;;;;;;;113.43;48.45;;;;;;;;;;6265603;28;20175;-62
2022/03/30 02:59:04;;;;;;;126.15;51.95;;;;;;;;;;6264384;28;20176;-62
2022/03/30 03:02:05;;;;;;;124.18;52.88;;;;;;;;;;6266485;28;20053;-61
2022/03/30 03:05:06;;;;;;;133.02;52.33;;;;;;;;;;6257802;28;20057;-61
2022/03/30 03:08:08;;;;;;;126.18;51.25;;;;;;;;;;6261042;28;20147;-62
2022/03/30 03:11:10;;;;;;;126.88;50.50;;;;;;;;;;6261526;28;20214;-62
2022/03/30 03:14:10;;;;;;;120.80;48.88;;;;;;;;;;6262109;28;20110;-62
2022/03/30 03:17:11;;;;;;;130.38;51.65;;;;;;;;;;6260945;28;20153;-61
2022/03/30 03:20:12;;;;;;;139.57;53.08;;;;;;;;;;6264118;28;20159;-62
2022/03/30 03:23:13;;;;;;;132.07;52.60;;;;;;;;;;6267075;28;20083;-62
2022/03/30 03:26:14;;;;;;;122.95;50.13;;;;;;;;;;6262850;28;20172;-62
2022/03/30 03:29:15;;;;;;;125.88;50.17;;;;;;;;;;6263283;28;20057;-62
2022/03/30 03:32:15;;;;;;;114.18;48.65;;;;;;;;;;6267107;28;20053;-61
2022/03/30 03:35:16;;;;;;;109.85;48.67;;;;;;;;;;6266833;28;20049;-62
2022/03/30 03:38:16;;;;;;;122.53;50.35;;;;;;;;;;6263870;28;20055;-61
2022/03/30 03:41:17;;;;;;;105.57;45.33;;;;;;;;;;6264260;28;20051;-62
2022/03/30 03:44:17;;;;;;;102.28;42.83;;;;;;;;;;6265025;28;20041;-60
2022/03/30 03:47:18;;;;;;;109.65;44.33;;;;;;;;;;6264498;28;20100;-62
2022/03/30 03:50:19;;;;;;;116.80;48.90;;;;;;;;;;6262712;28;20511;-62
2022/03/30 03:53:20;;;;;;;116.15;48.72;;;;;;;;;;6267975;28;20420;-60
2022/03/30 03:56:21;;;;;;;122.88;49.88;;;;;;;;;;6263504;28;20596;-62
2022/03/30 03:59:21;;;;;;;111.88;46.15;;;;;;;;;;6261012;28;20500;-60
2022/03/30 04:02:22;;;;;;;114.93;47.38;;;;;;;;;;6264536;28;20179;-61
2022/03/30 04:05:23;;;;;;;125.38;49.70;;;;;;;;;;6261550;28;21068;-62
2022/03/30 04:08:23;;;;;;;110.93;45.60;;;;;;;;;;6267020;28;20132;-61
2022/03/30 04:11:24;;;;;;;113.03;47.78;;;;;;;;;;6260372;28;20527;-62
2022/03/30 04:14:24;;;;;;;117.22;47.85;;;;;;;;;;6265494;28;20049;-60
2022/03/30 04:17:25;;;;;;;117.97;46.30;;;;;;;;;;6263845;28;20037;-61
2022/03/30 04:20:26;;;;;;;115.78;45.67;;;;;;;;;;6263196;28;20136;-62
2022/03/30 04:23:27;;;;;;;110.57;45.85;;;;;;;;;;6262449;28;20140;-61
2022/03/30 04:26:27;;;;;;;114.13;47.75;;;;;;;;;;6262881;28;20051;-62
2022/03/30 04:29:28;;;;;;;123.95;47.85;;;;;;;;;;6265032;28;20056;-62
2022/03/30 04:32:29;;;;;;;112.57;45.30;;;;;;;;;;6263554;28;20069;-60
2022/03/30 04:35:29;;;;;;;113.00;44.95;;;;;;;;;;6263035;28;20095;-61
2022/03/30 04:38:30;;;;;;;114.22;43.75;;;;;;;;;;6258948;28;20312;-61
2022/03/30 04:41:31;;;;;;;109.20;45.65;;;;;;;;;;6265904;28;20068;-60
2022/03/30 04:44:32;;;;;;;115.35;46.33;;;;;;;;;;6261208;28;20131;-66
2022/03/30 04:47:32;;;;;;;117.82;48.55;;;;;;;;;;6259846;28;20045;-63
2022/03/30 04:50:33;;;;;;;125.70;48.75;;;;;;;;;;6257828;28;20562;-61
2022/03/30 04:53:34;;;;;;;120.00;47.35;;;;;;;;;;6260755;28;20144;-61
2022/03/30 04:56:34;;;;;;;117.70;46.88;;;;;;;;;;6256739;28;20049;-61
2022/03/30 04:59:35;;;;;;;111.68;43.55;;;;;;;;;;6261059;28;20060;-61
2022/03/30 05:02:37;;;;;;;116.07;47.10;;;;;;;;;;6261567;28;20049;-60
2022/03/30 05:05:38;;;;;;;;;;;;;;;;;;6263910;28;20499;-59
2022/03/30 05:08:38;;;;;;;106.53;42.97;;;;;;;;;;6266737;28;19930;-61
2022/03/30 05:11:39;;;;;;;102.85;43.25;;;;;;;;;;6265644;28;20644;-61
2022/03/30 05:14:40;;;;;;;113.32;43.10;;;;;;;;;;6260578;28;20124;-60
2022/03/30 05:17:44;;;;;;;106.55;43.08;;;;;;;;;;6257289;28;20084;-60
2022/03/30 05:20:46;;;;;;;101.47;40.53;;;;;;;;;;6258594;28;20049;-61
2022/03/30 05:23:47;;;;;;;106.45;43.47;;;;;;;;;;6259189;28;20044;-61
2022/03/30 05:26:47;;;;;;;108.97;46.42;;;;;;;;;;6262858;28;20041;-61
2022/03/30 05:29:48;;;;;;;119.07;45.45;;;;;;;;;;6263391;28;20075;-60
2022/03/30 05:32:49;;;;;;;116.45;48.15;;;;;;;;;;6263221;28;20052;-61
2022/03/30 05:35:50;;;;;;;114.30;48.53;;;;;;;;;;6261927;28;20867;-60
2022/03/30 05:38:51;;;;;;;111.75;44.63;;;;;;;;;;6255590;28;20045;-61
2022/03/30 05:41:54;;;;;;;113.50;45.83;;;;;;;;;;6263041;28;20111;-60
2022/03/30 05:44:55;;;;;;;115.38;45.97;;;;;;;;;;6265613;28;20052;-61
2022/03/30 05:47:55;;;;;;;107.88;45.22;;;;;;;;;;6263050;28;20507;-61
2022/03/30 05:50:56;;;;;;;114.80;46.88;;;;;;;;;;6260825;28;20183;-61
2022/03/30 05:53:57;;;;;;;117.95;47.35;;;;;;;;;;6260586;28;20052;-61
2022/03/30 05:57:00;;;;;;;118.82;46.28;;;;;;;;;;6258273;28;20492;-61
2022/03/30 06:00:05;;;;;;;110.80;45.97;;;;;;;;;;6260371;28;20041;-61
2022/03/30 06:03:05;;;;;;;102.10;43.92;;;;;;;;;;6260071;28;20460;-61
2022/03/30 06:06:06;;;;;;;110.30;49.05;;;;;;;;;;6256439;28;20055;-61
2022/03/30 06:09:07;;;;;;;120.35;48.78;;;;;;;;;;6260376;28;20053;-61
2022/03/30 06:12:08;;;;;;;105.07;46.88;;;;;;;;;;6258768;28;20075;-61
2022/03/30 06:15:09;;;;;;;114.18;48.88;;;;;;;;;;6256825;28;20040;-61
2022/03/30 06:18:11;;;;;;;109.90;46.53;;;;;;;;;;6260623;28;20218;-61
2022/03/30 06:21:12;;;;;;;116.13;49.40;;;;;;;;;;6258593;28;20053;-61
2022/03/30 06:24:13;;;;;;;121.63;48.53;;;;;;;;;;6262228;28;20072;-61
2022/03/30 06:27:14;;;;;;;114.63;50.63;;;;;;;;;;6255266;28;20057;-62
2022/03/30 06:30:15;;;;;;;134.00;56.80;;;;;;;;;;6258636;28;20049;-61
2022/03/30 06:33:15;;;;;;;135.27;58.10;;;;;;;;;;6259420;28;20079;-61
2022/03/30 06:36:16;;;;;;;158.88;63.15;;;;;;;;;;6259670;28;20049;-61
2022/03/30 06:39:17;;;;;;;143.30;59.85;;;;;;;;;;6258693;28;20502;-61
2022/03/30 06:42:18;;;;;;;119.60;51.95;;;;;;;;;;6260418;28;20048;-61
2022/03/30 06:45:18;;;;;;;135.10;53.97;;;;;;;;;;6260181;28;20487;-61
2022/03/30 06:48:19;;;;;;;131.52;54.35;;;;;;;;;;6262115;28;20060;-61
2022/03/30 06:51:19;;;;;;;132.52;51.45;;;;;;;;;;6270014;28;20127;-61
2022/03/30 06:54:20;;;;;;;138.45;53.40;;;;;;;;;;6268090;28;20053;-62
2022/03/30 06:57:21;;;;;;;99.60;41.03;;;;;;;;;;6265265;28;20051;-61
2022/03/30 07:00:21;;;;;;;102.13;43.55;;;;;;;;;;6268817;28;20040;-61
2022/03/30 07:03:26;;;;;;;85.45;34.78;;;;;;;;;;6266780;28;20123;-60
2022/03/30 07:06:26;;;;;;;84.95;35.20;;;;;;;;;;6263748;28;20049;-61
2022/03/30 07:12:48;;;;;;;80.40;34.08;;;;;;;;;;6264439;28;20045;-61
2022/03/30 07:15:49;;;;;;;87.18;36.20;;;;;;;;;;6263435;28;20063;-61
2022/03/30 07:18:50;;;;;;;93.00;39.67;;;;;;;;;;6264428;28;20049;-61
2022/03/30 07:21:51;;;;;;;96.87;40.80;;;;;;;;;;6262839;28;20045;-61
2022/03/30 07:24:52;;;;;;;91.85;42.22;;;;;;;;;;6262837;28;20477;-61
2022/03/30 07:27:55;;;;;;;107.78;43.53;;;;;;;;;;6259894;28;20532;-61
2022/03/30 07:30:56;;;;;;;91.18;41.30;;;;;;;;;;6264427;28;20094;-61
2022/03/30 07:33:56;;;;;;;83.63;37.33;;;;;;;;;;6264999;28;20051;-61
2022/03/30 07:36:57;;;;;;;85.28;36.28;;;;;;;;;;6264060;28;20060;-61
2022/03/30 07:39:58;;;;;;;79.32;35.20;;;;;;;;;;6260530;28;20389;-61
2022/03/30 07:42:59;;;;;;;82.43;34.90;;;;;;;;;;6262245;28;20492;-61
2022/03/30 07:45:59;;;;;;;73.20;30.95;;;;;;;;;;6262195;28;20128;-62
2022/03/30 07:49:00;;;;;;;75.57;30.92;;;;;;;;;;6264358;28;20373;-61
2022/03/30 07:52:03;;;;;;;80.60;33.53;;;;;;;;;;6266032;28;20056;-61
2022/03/30 07:55:05;;;;;;;70.82;30.35;;;;;;;;;;6266214;28;20420;-60
2022/03/30 07:58:06;;;;;;;73.35;29.38;;;;;;;;;;6267540;28;20148;-61
2022/03/30 08:01:07;;;;;;;73.63;30.45;;;;;;;;;;6266663;28;20099;-61
2022/03/30 08:04:08;;;;;;;72.75;30.10;;;;;;;;;;6264411;28;20091;-61
2022/03/30 08:07:08;;;;;;;65.20;29.42;;;;;;;;;;6264739;28;20049;-61
2022/03/30 08:10:10;;;;;;;66.70;26.33;;;;;;;;;;6265862;28;20119;-61
2022/03/30 08:13:12;;;;;;;67.53;27.80;;;;;;;;;;6267897;28;20465;-61
2022/03/30 08:16:13;;;;;;;;;;;;;;;;;;6266184;28;20076;-62
2022/03/30 08:19:13;;;;;;;65.75;26.38;;;;;;;;;;6267134;28;20298;-61
2022/03/30 08:22:26;;;;;;;64.10;25.58;;;;;;;;;;6267140;28;20469;-61
2022/03/30 08:25:27;;;;;;;58.30;26.30;;;;;;;;;;6267498;28;20048;-62
2022/03/30 08:28:27;;;;;;;55.15;23.20;;;;;;;;;;6266095;28;20065;-61
2022/03/30 08:31:28;;;;;;;51.83;22.13;;;;;;;;;;6268170;28;20045;-62
2022/03/30 08:34:29;;;;;;;54.90;22.40;;;;;;;;;;6265580;28;20080;-62
2022/03/30 08:37:30;;;;;;;57.43;23.93;;;;;;;;;;6263820;28;20053;-61
2022/03/30 08:40:31;;;;;;;59.70;23.02;;;;;;;;;;6261464;28;20147;-62
2022/03/30 08:43:32;;;;;;;53.38;22.73;;;;;;;;;;6261382;28;20087;-62
2022/03/30 08:46:33;;;;;;;45.78;18.88;;;;;;;;;;6260817;28;20049;-61
2022/03/30 08:49:35;;;;;;;47.08;20.90;;;;;;;;;;6261386;28;20053;-61
2022/03/30 08:52:35;;;;;;;50.83;21.60;;;;;;;;;;6263200;28;20107;-62
2022/03/30 08:55:36;;;;;;;47.90;21.67;;;;;;;;;;6262886;28;20430;-62
2022/03/30 08:58:36;;;;;;;52.45;21.98;;;;;;;;;;6262624;28;20075;-62
2022/03/30 09:01:39;;;;;;;50.95;21.92;;;;;;;;;;6262929;28;20408;-62
2022/03/30 09:04:40;;;;;;;54.88;22.85;;;;;;;;;;6258855;28;20053;-62
2022/03/30 09:07:48;;;;;;;55.20;22.83;;;;;;;;;;6263643;28;20114;-62
2022/03/30 09:10:52;;;;;;;53.45;21.48;;;;;;;;;;6242872;28;20068;-62
2022/03/30 09:14:03;;;;;;;51.55;23.67;;;;;;;;;;6254768;28;20446;-62
2022/03/30 09:17:06;;;;;;;54.90;23.50;;;;;;;;;;6262416;28;20128;-63
2022/03/30 09:20:16;;;;;;;56.22;25.25;;;;;;;;;;6260259;28;20508;-63
2022/03/30 09:23:18;;;;;;;52.22;22.77;;;;;;;;;;6258239;28;20135;-61
2022/03/30 09:26:19;;;;;;;57.73;24.60;;;;;;;;;;6240668;28;20073;-62
2022/03/30 09:29:24;;;;;;;55.17;23.35;;;;;;;;;;6254374;28;20106;-62
2022/03/30 09:32:25;;;;;;;56.08;25.17;;;;;;;;;;6264945;28;20083;-68
2022/03/30 09:35:32;;;;;;;53.85;23.65;;;;;;;;;;6259580;28;20057;-62
2022/03/30 09:38:37;;;;;;;53.50;23.08;;;;;;;;;;6256148;28;20049;-62
2022/03/30 09:41:45;;;;;;;52.70;22.60;;;;;;;;;;6260118;28;20408;-62
2022/03/30 09:44:53;;;;;;;49.03;21.10;;;;;;;;;;6255507;28;20080;-62
2022/03/30 09:47:54;;;;;;;50.78;21.25;;;;;;;;;;6259323;28;20331;-62
2022/03/30 09:50:57;;;;;;;54.97;23.60;;;;;;;;;;6260889;28;20052;-61
2022/03/30 09:53:57;;;;;;;52.17;21.63;;;;;;;;;;6260663;28;20073;-62
2022/03/30 09:56:58;;;;;;;50.55;22.48;;;;;;;;;;6261724;28;20071;-62
2022/03/30 10:00:12;;;;;;;49.05;22.83;;;;;;;;;;6259449;28;20427;-62
2022/03/30 10:03:14;;;;;;;50.20;21.73;;;;;;;;;;6255522;28;20091;-62
2022/03/30 10:06:18;;;;;;;49.70;21.00;;;;;;;;;;6257825;28;20069;-62
2022/03/30 10:09:22;;;;;;;49.85;21.70;;;;;;;;;;6261551;28;20053;-61
2022/03/30 10:12:24;;;;;;;47.30;21.45;;;;;;;;;;6260900;28;20136;-62
2022/03/30 10:15:24;;;;;;;50.83;21.42;;;;;;;;;;6258296;28;20073;-62
2022/03/30 10:18:25;;;;;;;49.05;20.65;;;;;;;;;;6258721;28;20053;-62
2022/03/30 10:22:01;;;;;;;55.20;23.35;;;;;;;;;;6265339;28;20442;-62
2022/03/30 10:25:27;;;;;;;50.42;20.27;;;;;;;;;;6267522;28;20744;-61
2022/03/30 10:28:40;;;;;;;45.33;20.80;;;;;;;;;;6270654;28;20487;-62
2022/03/30 10:31:41;;;;;;;67.07;22.77;;;;;;;;;;6262867;28;20048;-62
2022/03/30 10:34:57;;;;;;;47.78;20.98;;;;;;;;;;6260446;28;20138;-61
2022/03/30 10:37:59;;;;;;;47.85;21.05;;;;;;;;;;6261615;28;20084;-61
2022/03/30 10:41:08;;;;;;;46.75;21.83;;;;;;;;;;6266157;28;21153;-61
2022/03/30 10:44:35;;;;;;;45.83;21.67;;;;;;;;;;6265691;28;20052;-60
2022/03/30 10:47:36;;;;;;;49.20;20.52;;;;;;;;;;6264089;28;20069;-61
2022/03/30 10:50:42;;;;;;;48.80;21.13;;;;;;;;;;6267118;28;20045;-61
2022/03/30 10:53:50;;;;;;;45.88;20.50;;;;;;;;;;6265883;28;20438;-63
2022/03/30 10:56:51;;;;;;;46.58;20.40;;;;;;;;;;6266213;28;20057;-63
2022/03/30 11:00:07;;;;;;;43.78;20.15;;;;;;;;;;6263516;28;20483;-63
2022/03/30 11:03:09;;;;;;;46.85;20.50;;;;;;;;;;6265212;28;20128;-63
2022/03/30 11:06:10;;;;;;;;;;;;;;;;;;6264445;28;20091;-63
2022/03/30 11:09:21;;;;;;;46.83;19.58;;;;;;;;;;6260549;28;20322;-64
2022/03/30 11:12:22;;;;;;;45.88;20.45;;;;;;;;;;6265560;28;20091;-64
2022/03/30 11:15:22;;;;;;;40.20;18.45;;;;;;;;;;6262878;28;20128;-64
2022/03/30 11:18:23;;;;;;;40.67;18.98;;;;;;;;;;6261390;28;20079;-64
2022/03/30 11:21:25;;;;;;;48.70;19.48;;;;;;;;;;6261552;28;20045;-64
2022/03/30 11:24:26;;;;;;;;;;;;;;;;;;6266206;28;20053;-64
2022/03/30 11:27:27;;;;;;;43.42;18.90;;;;;;;;;;6266211;28;20442;-63
2022/03/30 11:30:29;;;;;;;42.10;19.83;;;;;;;;;;6262350;28;20491;-63
2022/03/30 11:33:32;;;;;;;49.30;19.63;;;;;;;;;;6260914;28;20419;-64
2022/03/30 11:36:33;;;;;;;43.25;19.83;;;;;;;;;;6263743;28;20052;-63
2022/03/30 11:39:34;;;;;;;46.25;20.23;;;;;;;;;;6261550;28;20116;-63
2022/03/30 11:42:40;;;;;;;44.20;20.55;;;;;;;;;;6264097;28;20083;-63
2022/03/30 11:45:40;;;;;;;44.50;20.13;;;;;;;;;;6265583;28;20672;-63
2022/03/30 11:48:41;;;;;;;45.05;21.10;;;;;;;;;;6266290;28;20057;-63
2022/03/30 11:51:42;;;;;;;46.00;19.65;;;;;;;;;;6267198;28;20041;-62
2022/03/30 11:54:53;;;;;;;46.85;20.05;;;;;;;;;;6267823;28;20406;-63
2022/03/30 11:57:54;;;;;;;47.37;19.37;;;;;;;;;;6258235;28;20049;-63
2022/03/30 12:00:56;;;;;;;39.78;18.63;;;;;;;;;;6258989;28;20048;-63
2022/03/30 12:03:57;;;;;;;44.03;18.73;;;;;;;;;;6264174;28;20083;-63
2022/03/30 12:06:58;;;;;;;42.42;19.40;;;;;;;;;;6261854;28;20048;-65
2022/03/30 12:09:58;;;;;;;45.30;19.27;;;;;;;;;;6261562;28;20255;-66
2022/03/30 12:13:00;;;;;;;43.00;18.38;;;;;;;;;;6260544;28;20083;-65
2022/03/30 12:16:02;;;;;;;42.50;18.08;;;;;;;;;;6263308;28;20045;-66
2022/03/30 12:19:02;;;;;;;47.58;19.38;;;;;;;;;;6261672;28;20048;-65
2022/03/30 12:22:05;;;;;;;42.25;19.27;;;;;;;;;;6259890;28;20590;-65
2022/03/30 12:25:15;;;;;;;;;;;;;;;;;;6262319;28;20052;-65
2022/03/30 12:28:27;;;;;;;42.42;17.90;;;;;;;;;;6255682;28;19925;-64
2022/03/30 12:31:35;;;;;;;40.78;17.85;;;;;;;;;;6243000;28;20370;-65
2022/03/30 12:34:39;;;;;;;36.97;18.17;;;;;;;;;;6241507;28;20060;-64
2022/03/30 12:37:45;;;;;;;45.88;19.48;;;;;;;;;;6246036;28;20478;-64
2022/03/30 12:40:52;;;;;;;44.67;18.45;;;;;;;;;;6240719;28;20135;-64
2022/03/30 12:43:58;;;;;;;45.97;19.27;;;;;;;;;;6241501;28;20053;-65
2022/03/30 12:47:01;;;;;;;45.30;18.05;;;;;;;;;;6244669;28;20049;-64
2022/03/30 12:50:33;;;;;;;45.38;18.80;;;;;;;;;;6240264;28;20064;-65
2022/03/30 12:53:36;;;;;;;44.33;19.20;;;;;;;;;;6245776;28;20559;-65
2022/03/30 12:56:45;;;;;;;39.65;18.25;;;;;;;;;;6247926;28;20049;-66
2022/03/30 12:59:46;;;;;;;41.00;18.05;;;;;;;;;;6242013;28;20057;-64
2022/03/30 13:02:47;;;;;;;40.83;18.35;;;;;;;;;;6241773;28;20398;-66
2022/03/30 13:06:00;;;;;;;45.08;19.48;;;;;;;;;;6242170;28;20271;-65
2022/03/30 13:09:18;;;;;;;40.88;17.70;;;;;;;;;;6242652;28;20543;-63
2022/03/30 13:12:19;;;;;;;40.10;18.10;;;;;;;;;;6246280;28;20587;-64
2022/03/30 13:15:21;;;;;;;42.97;18.27;;;;;;;;;;6248884;28;20056;-65
2022/03/30 13:18:21;;;;;;;44.33;18.45;;;;;;;;;;6247569;28;20883;-64
2022/03/30 13:21:22;;;;;;;42.95;18.63;;;;;;;;;;6247531;28;20058;-65
2022/03/30 13:24:28;;;;;;;43.95;18.75;;;;;;;;;;6246853;28;20485;-64
2022/03/30 13:27:40;;;;;;;40.92;18.73;;;;;;;;;;6243759;28;20053;-65
2022/03/30 13:30:41;;;;;;;;;;;;;;;;;;6239386;28;21093;-67
2022/03/30 13:33:41;;;;;;;64.18;26.67;;;;;;;;;;6242213;28;19925;-65
2022/03/30 13:36:42;;;;;;;56.17;23.27;;;;;;;;;;6237972;28;20050;-65
2022/03/30 13:39:43;;;;;;;52.70;23.03;;;;;;;;;;6240357;28;20045;-65
2022/03/30 13:42:45;;;;;;;58.97;25.05;;;;;;;;;;6241849;28;20086;-66
2022/03/30 13:45:46;;;;;;;66.40;27.07;;;;;;;;;;6241030;28;20046;-64
2022/03/30 13:48:47;;;;;;;76.38;30.77;;;;;;;;;;6242005;28;20060;-66
2022/03/30 13:51:48;;;;;;;64.97;29.37;;;;;;;;;;6243542;28;20143;-66
2022/03/30 13:54:48;;;;;;;80.13;31.60;;;;;;;;;;6242402;28;20037;-64
2022/03/30 13:57:49;;;;;;;67.82;29.27;;;;;;;;;;6244951;28;20053;-66
2022/03/30 14:00:51;;;;;;;76.20;32.72;;;;;;;;;;6247471;28;20064;-66
2022/03/30 14:03:52;;;;;;;83.88;34.85;;;;;;;;;;6251240;28;20920;-63
2022/03/30 14:06:55;;;;;;;79.15;33.78;;;;;;;;;;6248417;28;20546;-65
2022/03/30 14:09:57;;;;;;;92.43;36.45;;;;;;;;;;6241395;28;20083;-64
2022/03/30 14:12:57;;;;;;;101.57;38.45;;;;;;;;;;6243230;28;20049;-63
2022/03/30 14:15:58;;;;;;;80.65;32.85;;;;;;;;;;6247852;28;20099;-63
2022/03/30 14:18:58;;;;;;;86.60;35.50;;;;;;;;;;6243653;28;20059;-63
2022/03/30 14:21:59;;;;;;;85.25;33.97;;;;;;;;;;6242717;28;20049;-62
2022/03/30 14:25:00;;;;;;;82.85;33.75;;;;;;;;;;6246894;28;20140;-64
2022/03/30 14:28:05;;;;;;;79.20;34.35;;;;;;;;;;6245522;28;20057;-64
2022/03/30 14:31:06;;;;;;;86.57;33.25;;;;;;;;;;6244043;28;20494;-64
2022/03/30 14:34:07;;;;;;;87.38;35.65;;;;;;;;;;6244782;28;20111;-64
2022/03/30 14:37:09;;;;;;;73.35;31.23;;;;;;;;;;6246723;28;20138;-64
2022/03/30 14:40:12;;;;;;;74.85;30.38;;;;;;;;;;6243529;28;20253;-64
2022/03/30 14:43:12;;;;;;;79.30;31.85;;;;;;;;;;6245275;28;20359;-64
2022/03/30 14:46:14;;;;;;;84.20;33.88;;;;;;;;;;6251003;28;20139;-64
2022/03/30 14:49:14;;;;;;;64.75;27.58;;;;;;;;;;6241159;28;20655;-62
2022/03/30 14:52:16;;;;;;;55.80;22.80;;;;;;;;;;6255254;28;21296;-65
2022/03/30 14:55:17;;;;;;;64.28;24.83;;;;;;;;;;6248566;28;20056;-63
2022/03/30 14:58:18;;;;;;;59.90;25.15;;;;;;;;;;6244228;28;20564;-63
2022/03/30 15:01:18;;;;;;;79.13;32.00;;;;;;;;;;6243895;28;20059;-63
2022/03/30 15:04:19;;;;;;;50.35;20.65;;;;;;;;;;6247700;28;20076;-65
2022/03/30 15:07:20;;;;;;;51.70;22.15;;;;;;;;;;6245866;28;20709;-61
2022/03/30 15:10:21;;;;;;;64.95;24.73;;;;;;;;;;6244555;28;20567;-62
2022/03/30 15:13:22;;;;;;;82.60;35.28;;;;;;;;;;6250976;28;20051;-62
2022/03/30 15:16:23;;;;;;;65.95;30.23;;;;;;;;;;6244336;28;20448;-63
2022/03/30 15:19:24;;;;;;;60.17;27.93;;;;;;;;;;6242600;28;20061;-64
2022/03/30 15:22:26;;;;;;;85.22;40.60;;;;;;;;;;6250911;28;20744;-63
2022/03/30 15:25:27;;;;;;;76.97;40.38;;;;;;;;;;6246792;28;20534;-65
2022/03/30 15:28:28;;;;;;;65.22;28.73;;;;;;;;;;6248304;28;20057;-61
2022/03/30 15:31:31;;;;;;;65.25;27.90;;;;;;;;;;6247582;28;20094;-61
2022/03/30 15:34:34;;;;;;;63.20;27.35;;;;;;;;;;6250919;28;20088;-62
2022/03/30 15:37:35;;;;;;;64.18;24.88;;;;;;;;;;6258552;28;20058;-65
2022/03/30 15:40:36;;;;;;;57.40;24.90;;;;;;;;;;6242143;28;20069;-64
2022/03/30 15:43:37;;;;;;;64.68;25.88;;;;;;;;;;6248227;28;20037;-60
2022/03/30 15:46:37;;;;;;;69.05;27.30;;;;;;;;;;6242357;28;20656;-63
2022/03/30 15:49:38;;;;;;;55.53;24.20;;;;;;;;;;6242542;28;20041;-61
2022/03/30 15:52:41;;;;;;;62.10;25.20;;;;;;;;;;6246040;28;20050;-60
2022/03/30 15:55:41;;;;;;;63.45;24.90;;;;;;;;;;6247084;28;20060;-60
2022/03/30 15:58:45;;;;;;;59.42;25.73;;;;;;;;;;6243183;28;20458;-59
2022/03/30 16:01:46;;;;;;;62.33;27.98;;;;;;;;;;6242179;28;20057;-58
2022/03/30 16:04:47;;;;;;;67.28;28.88;;;;;;;;;;6248354;28;20049;-61
2022/03/30 16:14:28;;;;;;;94.88;38.28;;;;;;;;;;6244245;28;20394;-66
2022/03/30 16:17:29;;;;;;;;;;;;;;;;;;6244151;28;20130;-62
2022/03/30 16:20:31;;;;;;;71.10;31.00;;;;;;;;;;6240302;28;19929;-64
2022/03/30 16:23:32;;;;;;;63.63;26.85;;;;;;;;;;6247724;28;20163;-65
2022/03/30 16:26:33;;;;;;;70.35;28.77;;;;;;;;;;6247119;28;20056;-65
2022/03/30 16:29:36;;;;;;;75.23;30.87;;;;;;;;;;6245757;28;20147;-67
2022/03/30 16:32:36;;;;;;;82.60;33.65;;;;;;;;;;6242001;28;20041;-68
2022/03/30 16:35:38;;;;;;;66.97;27.60;;;;;;;;;;6245422;28;20041;-68
2022/03/30 16:38:39;;;;;;;93.10;37.10;;;;;;;;;;6248148;28;20168;-66
2022/03/30 16:41:40;;;;;;;88.07;34.97;;;;;;;;;;6237879;28;20196;-64
2022/03/30 16:44:40;;;;;;;96.70;40.17;;;;;;;;;;6245314;28;20050;-65
2022/03/30 16:47:41;;;;;;;98.30;42.63;;;;;;;;;;6244514;28;20622;-64
2022/03/30 16:50:42;;;;;;;120.28;46.53;;;;;;;;;;6237036;28;20041;-61
2022/03/30 16:53:43;;;;;;;108.63;40.93;;;;;;;;;;6248602;28;20079;-62
2022/03/30 16:56:46;;;;;;;104.60;44.38;;;;;;;;;;6246435;28;20865;-63
2022/03/30 16:59:46;;;;;;;113.80;48.47;;;;;;;;;;6240881;28;20076;-64
2022/03/30 17:02:47;;;;;;;108.85;44.90;;;;;;;;;;6246175;28;20507;-63
2022/03/30 17:05:50;;;;;;;109.07;44.80;;;;;;;;;;6247191;28;20053;-64
2022/03/30 17:12:11;;;;;;;115.22;48.83;;;;;;;;;;6241747;28;20095;-63
2022/03/30 17:15:12;;;;;;;127.43;51.33;;;;;;;;;;6244741;28;20056;-64
2022/03/30 17:18:12;;;;;;;123.93;47.10;;;;;;;;;;6243961;28;20092;-62
2022/03/30 17:21:13;;;;;;;123.57;51.50;;;;;;;;;;6240795;28;20407;-64
2022/03/30 17:24:14;;;;;;;118.30;51.70;;;;;;;;;;6245928;28;20048;-64
2022/03/30 17:27:14;;;;;;;112.47;49.03;;;;;;;;;;6242028;28;20045;-62
2022/03/30 17:30:18;;;;;;;111.47;51.15;;;;;;;;;;6238682;28;20117;-64
2022/03/30 17:33:19;;;;;;;113.28;49.38;;;;;;;;;;6240264;28;20480;-64
2022/03/30 17:36:20;;;;;;;128.35;57.38;;;;;;;;;;6241300;28;20077;-65
2022/03/30 17:39:22;;;;;;;119.45;51.08;;;;;;;;;;6239544;28;20048;-65
2022/03/30 17:42:25;;;;;;;141.67;68.33;;;;;;;;;;6239831;28;20063;-65
2022/03/30 17:45:32;;;;;;;125.13;60.35;;;;;;;;;;6241128;28;20053;-64
2022/03/30 17:51:56;;;;;;;116.68;49.72;;;;;;;;;;6236579;28;21114;-66
2022/03/30 17:54:57;;;;;;;112.95;47.78;;;;;;;;;;6240222;28;20055;-66